createdAt,value
2019-04-10T00:00:44.432Z,52.12
2019-04-10T00:03:25.720Z,52.11
2019-04-10T00:05:46.353Z,52.02
2019-04-10T00:08:17.773Z,52.04
2019-04-10T00:10:47.953Z,52.11
2019-04-10T00:13:18.421Z,52.21
2019-04-10T00:15:48.779Z,52.20
2019-04-10T00:18:18.400Z,52.22
2019-04-10T00:20:49.042Z,52.21
2019-04-10T00:23:19.291Z,52.30
2019-04-10T00:25:48.978Z,52.24
2019-04-10T00:28:19.651Z,52.31
2019-04-10T00:30:49.440Z,52.45
2019-04-10T00:33:19.111Z,52.51
2019-04-10T00:35:49.754Z,52.62
2019-04-10T00:38:21.815Z,52.61
2019-04-10T00:40:52.035Z,52.74
2019-04-10T00:43:23.106Z,52.80
2019-04-10T00:45:53.576Z,52.85
2019-04-10T00:48:23.975Z,52.85
2019-04-10T00:50:55.027Z,52.81
2019-04-10T00:53:25.307Z,52.75
2019-04-10T00:55:56.673Z,52.83
2019-04-10T00:58:26.293Z,52.93
2019-04-10T01:00:57.098Z,52.98
2019-04-10T01:03:46.640Z,53.00
2019-04-10T01:06:17.877Z,52.95
2019-04-10T01:08:48.707Z,52.95
2019-04-10T01:11:19.015Z,53.03
2019-04-10T01:13:50.163Z,53.07
2019-04-10T01:16:19.857Z,53.11
2019-04-10T01:18:49.485Z,53.24
2019-04-10T01:21:19.985Z,53.17
2019-04-10T01:23:49.655Z,53.18
2019-04-10T01:26:21.221Z,53.30
2019-04-10T01:28:51.253Z,53.32
2019-04-10T01:31:21.378Z,53.25
2019-04-10T01:33:51.108Z,53.16
2019-04-10T01:36:20.864Z,53.26
2019-04-10T01:38:51.725Z,53.34
2019-04-10T01:41:21.671Z,53.50
2019-04-10T01:43:51.388Z,53.56
2019-04-10T01:46:21.043Z,53.42
2019-04-10T01:48:51.280Z,53.38
2019-04-10T01:51:21.431Z,53.38
2019-04-10T01:53:52.758Z,53.40
2019-04-10T01:56:30.216Z,53.38
2019-04-10T01:58:54.834Z,53.52
2019-04-10T02:01:35.077Z,53.53
2019-04-10T02:04:06.727Z,53.55
2019-04-10T02:06:37.714Z,53.47
2019-04-10T02:09:09.376Z,53.56
2019-04-10T02:11:39.926Z,53.57
2019-04-10T02:14:10.105Z,53.64
2019-04-10T02:16:39.737Z,53.75
2019-04-10T02:19:10.813Z,53.77
2019-04-10T02:21:41.965Z,53.93
2019-04-10T02:24:11.710Z,53.91
2019-04-10T02:26:41.463Z,53.92
2019-04-10T02:29:11.316Z,53.91
2019-04-10T02:31:41.660Z,53.92
2019-04-10T02:34:12.888Z,54.04
2019-04-10T02:36:42.692Z,53.98
2019-04-10T02:39:24.025Z,54.05
2019-04-10T02:41:45.810Z,54.01
2019-04-10T02:44:16.316Z,54.05
2019-04-10T02:46:47.343Z,54.13
2019-04-10T02:49:18.460Z,54.25
2019-04-10T02:51:49.811Z,54.26
2019-04-10T02:54:21.355Z,54.44
2019-04-10T02:56:52.674Z,54.39
2019-04-10T02:59:23.360Z,54.38
2019-04-10T03:01:53.526Z,54.40
2019-04-10T03:04:24.458Z,54.33
2019-04-10T03:06:55.477Z,54.44
2019-04-10T03:09:41.469Z,54.45
2019-04-10T03:11:59.521Z,54.58
2019-04-10T03:14:29.539Z,54.55
2019-04-10T03:16:59.805Z,54.71
2019-04-10T03:19:29.652Z,54.63
2019-04-10T03:21:59.663Z,54.65
2019-04-10T03:24:29.579Z,54.68
2019-04-10T03:26:59.234Z,54.74
2019-04-10T03:29:31.569Z,54.82
2019-04-10T03:32:04.534Z,55.17
2019-04-10T03:34:39.999Z,55.45
2019-04-10T03:37:07.671Z,55.90
2019-04-10T03:39:38.469Z,55.81
2019-04-10T03:42:08.568Z,55.73
2019-04-10T03:44:38.927Z,55.58
2019-04-10T03:47:09.954Z,55.53
2019-04-10T03:49:40.120Z,55.43
2019-04-10T03:52:10.090Z,55.52
2019-04-10T03:54:40.727Z,55.46
2019-04-10T03:57:10.418Z,55.45
2019-04-10T03:59:41.431Z,55.54
2019-04-10T04:02:11.684Z,55.58
2019-04-10T04:04:41.863Z,55.52
2019-04-10T04:07:11.500Z,55.61
2019-04-10T04:09:41.859Z,55.50
2019-04-10T04:12:13.079Z,55.91
2019-04-10T04:14:42.700Z,55.92
2019-04-10T04:17:13.643Z,56.08
2019-04-10T04:19:43.346Z,55.96
2019-04-10T04:22:13.040Z,55.90
2019-04-10T04:24:44.047Z,55.85
2019-04-10T04:27:15.293Z,55.76
2019-04-10T04:29:45.410Z,55.82
2019-04-10T04:32:15.588Z,55.80
2019-04-10T04:34:45.459Z,55.94
2019-04-10T04:37:16.550Z,55.97
2019-04-10T04:39:46.244Z,55.86
2019-04-10T04:42:16.989Z,55.80
2019-04-10T04:44:47.690Z,55.78
2019-04-10T04:47:18.593Z,55.83
2019-04-10T04:49:48.259Z,55.97
2019-04-10T04:52:18.341Z,55.96
2019-04-10T04:54:48.252Z,55.98
2019-04-10T04:57:19.132Z,55.92
2019-04-10T04:59:48.923Z,56.01
2019-04-10T05:02:18.556Z,56.14
2019-04-10T05:04:49.291Z,56.15
2019-04-10T05:07:19.020Z,56.18
2019-04-10T05:09:48.724Z,56.22
2019-04-10T05:12:20.064Z,56.21
2019-04-10T05:14:49.893Z,56.24
2019-04-10T05:17:20.003Z,56.24
2019-04-10T05:19:50.298Z,56.25
2019-04-10T05:22:20.870Z,56.15
2019-04-10T05:24:50.561Z,56.24
2019-04-10T05:27:20.259Z,56.26
2019-04-10T05:29:50.565Z,56.22
2019-04-10T05:32:21.496Z,56.20
2019-04-10T05:34:52.379Z,56.29
2019-04-10T05:37:23.079Z,56.24
2019-04-10T05:39:53.944Z,56.33
2019-04-10T05:42:24.809Z,56.27
2019-04-10T05:44:54.511Z,56.29
2019-04-10T05:47:24.133Z,56.37
2019-04-10T05:49:54.036Z,56.24
2019-04-10T05:52:23.685Z,56.04
2019-04-10T05:54:53.613Z,55.91
2019-04-10T05:57:23.229Z,55.85
2019-04-10T05:59:52.940Z,55.97
2019-04-10T06:02:23.038Z,56.07
2019-04-10T06:04:53.843Z,56.11
2019-04-10T06:07:23.665Z,56.09
2019-04-10T06:09:59.577Z,55.98
2019-04-10T06:12:24.865Z,56.08
2019-04-10T06:14:54.690Z,56.14
2019-04-10T06:17:24.698Z,56.22
2019-04-10T06:19:54.581Z,56.17
2019-04-10T06:22:24.211Z,56.09
2019-04-10T06:24:54.398Z,56.09
2019-04-10T06:27:24.316Z,56.26
2019-04-10T06:29:55.137Z,56.13
2019-04-10T06:32:25.479Z,56.05
2019-04-10T06:34:55.325Z,55.98
2019-04-10T06:37:26.162Z,55.89
2019-04-10T06:40:07.572Z,55.87
2019-04-10T06:42:27.222Z,55.92
2019-04-10T06:44:56.847Z,55.98
2019-04-10T06:47:26.572Z,56.22
2019-04-10T06:49:56.947Z,56.55
2019-04-10T06:52:27.018Z,56.62
2019-04-10T06:54:57.339Z,56.38
2019-04-10T06:57:27.077Z,55.93
2019-04-10T06:59:59.364Z,55.21
2019-04-10T07:02:30.987Z,55.12
2019-04-10T07:05:05.045Z,54.58
2019-04-10T07:07:44.425Z,54.25
2019-04-10T07:10:02.363Z,53.83
2019-04-10T07:12:33.973Z,53.29
2019-04-10T07:15:04.505Z,52.96
2019-04-10T07:17:37.520Z,52.63
2019-04-10T07:20:07.481Z,52.58
2019-04-10T07:22:37.112Z,52.60
2019-04-10T07:25:10.457Z,52.56
2019-04-10T07:27:40.060Z,52.59
2019-04-10T07:30:10.023Z,52.46
2019-04-10T07:32:43.304Z,52.36
2019-04-10T07:35:14.342Z,52.23
2019-04-10T07:37:46.563Z,52.07
2019-04-10T07:40:16.542Z,51.67
2019-04-10T07:42:46.344Z,51.07
2019-04-10T07:45:16.116Z,51.27
2019-04-10T07:47:46.210Z,51.54
2019-04-10T07:50:18.958Z,51.68
2019-04-10T07:52:52.095Z,51.69
2019-04-10T07:55:23.851Z,51.61
2019-04-10T07:57:53.557Z,51.26
2019-04-10T08:00:25.062Z,51.12
2019-04-10T08:02:55.351Z,50.83
2019-04-10T08:05:25.203Z,50.83
2019-04-10T08:07:56.473Z,50.83
2019-04-10T08:10:26.496Z,50.63
2019-04-10T08:12:56.228Z,50.93
2019-04-10T08:15:25.844Z,51.10
2019-04-10T08:17:56.114Z,50.91
2019-04-10T08:20:26.200Z,50.90
2019-04-10T08:22:55.846Z,50.66
2019-04-10T08:25:26.898Z,50.40
2019-04-10T08:27:56.687Z,50.58
2019-04-10T08:30:26.395Z,50.78
2019-04-10T08:33:01.289Z,50.97
2019-04-10T08:35:31.518Z,50.92
2019-04-10T08:38:01.406Z,51.04
2019-04-10T08:40:32.066Z,51.25
2019-04-10T08:43:02.117Z,50.84
2019-04-10T08:45:41.415Z,50.34
2019-04-10T08:48:03.602Z,50.54
2019-04-10T08:50:34.446Z,50.34
2019-04-10T08:53:04.191Z,50.38
2019-04-10T08:55:34.570Z,50.12
2019-04-10T08:58:04.221Z,50.13
2019-04-10T09:00:34.414Z,50.07
2019-04-10T09:03:04.525Z,50.11
2019-04-10T09:05:35.404Z,50.04
2019-04-10T09:08:05.100Z,49.70
2019-04-10T09:10:34.723Z,49.49
2019-04-10T09:13:04.536Z,49.08
2019-04-10T09:15:34.208Z,48.90
2019-04-10T09:18:04.083Z,49.11
2019-04-10T09:20:35.079Z,48.99
2019-04-10T09:23:18.951Z,48.89
2019-04-10T09:25:37.269Z,48.98
2019-04-10T09:28:08.414Z,49.25
2019-04-10T09:30:38.128Z,49.31
2019-04-10T09:33:18.973Z,49.02
2019-04-10T09:35:40.473Z,48.74
2019-04-10T09:38:10.656Z,48.84
2019-04-10T09:43:56.247Z,48.80
2019-04-10T09:46:31.083Z,48.66
2019-04-10T09:49:12.991Z,48.65
2019-04-10T09:54:40.490Z,48.69
2019-04-10T09:57:11.165Z,48.60
2019-04-10T09:59:42.643Z,48.71
2019-04-10T10:02:13.241Z,48.48
2019-04-10T10:04:43.888Z,48.13
2019-04-10T10:07:14.430Z,47.91
2019-04-10T10:09:45.101Z,47.98
2019-04-10T10:12:15.758Z,48.10
2019-04-10T10:14:46.299Z,48.03
2019-04-10T10:17:17.515Z,48.02
2019-04-10T10:19:48.363Z,47.92
2019-04-10T10:22:17.979Z,47.99
2019-04-10T10:24:48.864Z,48.06
2019-04-10T10:27:19.883Z,48.29
2019-04-10T10:29:51.815Z,48.16
2019-04-10T10:32:21.259Z,48.17
2019-04-10T10:34:54.616Z,47.63
2019-04-10T10:37:41.455Z,47.23
2019-04-10T10:40:11.817Z,47.25
2019-04-10T10:42:41.661Z,47.57
2019-04-10T10:45:12.502Z,47.60
2019-04-10T10:47:42.195Z,47.39
2019-04-10T10:50:13.099Z,47.32
2019-04-10T10:52:43.831Z,47.32
2019-04-10T10:55:13.675Z,47.53
2019-04-10T10:57:43.585Z,47.93
2019-04-10T11:00:14.683Z,47.91
2019-04-10T11:02:45.344Z,47.69
2019-04-10T11:05:15.393Z,47.61
2019-04-10T11:07:45.001Z,47.46
2019-04-10T11:10:20.555Z,47.12
2019-04-10T11:12:48.325Z,47.13
2019-04-10T11:15:18.621Z,47.07
2019-04-10T11:17:48.177Z,47.35
2019-04-10T11:20:18.000Z,47.40
2019-04-10T11:22:47.614Z,47.37
2019-04-10T11:25:17.517Z,47.19
2019-04-10T11:27:47.532Z,47.22
2019-04-10T11:30:18.306Z,46.86
2019-04-10T11:32:48.728Z,46.40
2019-04-10T11:35:19.164Z,46.38
2019-04-10T11:37:51.471Z,46.47
2019-04-10T11:40:21.002Z,46.71
2019-04-10T11:42:51.508Z,47.07
2019-04-10T11:45:23.022Z,47.18
2019-04-10T11:47:53.357Z,47.29
2019-04-10T11:50:25.396Z,46.77
2019-04-10T11:52:56.758Z,46.50
2019-04-10T11:55:27.800Z,46.57
2019-04-10T11:57:59.530Z,46.64
2019-04-10T12:03:12.768Z,46.79
2019-04-10T12:05:42.863Z,46.76
2019-04-10T12:08:49.816Z,46.68
2019-04-10T12:13:19.783Z,46.17
2019-04-10T12:15:50.464Z,45.57
2019-04-10T12:18:20.499Z,45.41
2019-04-10T12:20:50.099Z,45.24
2019-04-10T12:23:20.672Z,45.24
2019-04-10T12:25:51.223Z,45.04
2019-04-10T12:28:22.123Z,45.03
2019-04-10T12:30:51.827Z,44.74
2019-04-10T12:33:21.751Z,43.76
2019-04-10T12:35:51.372Z,43.08
2019-04-10T12:38:20.977Z,42.77
2019-04-10T12:40:50.934Z,42.73
2019-04-10T12:43:20.921Z,43.08
2019-04-10T12:45:50.737Z,43.48
2019-04-10T12:48:20.851Z,44.08
2019-04-10T12:50:50.476Z,44.68
2019-04-10T12:53:21.232Z,45.13
2019-04-10T12:55:51.442Z,45.39
2019-04-10T12:58:21.053Z,45.45
2019-04-10T13:00:52.150Z,45.49
2019-04-10T13:03:22.984Z,45.43
2019-04-10T13:05:53.622Z,45.60
2019-04-10T13:08:31.370Z,45.87
2019-04-10T13:10:56.000Z,45.97
2019-04-10T13:13:27.040Z,45.92
2019-04-10T13:15:56.870Z,46.11
2019-04-10T13:18:26.519Z,46.46
2019-04-10T13:20:56.131Z,46.41
2019-04-10T13:23:25.744Z,46.36
2019-04-10T13:26:01.816Z,46.23
2019-04-10T13:28:27.605Z,46.04
2019-04-10T13:30:58.474Z,46.23
2019-04-10T13:33:28.908Z,46.63
2019-04-10T13:35:59.538Z,47.04
2019-04-10T13:38:33.635Z,47.54
2019-04-10T13:41:00.632Z,48.09
2019-04-10T13:43:31.332Z,48.26
2019-04-10T13:46:00.987Z,48.27
2019-04-10T13:48:31.499Z,46.72
2019-04-10T13:51:01.352Z,46.50
2019-04-10T13:53:32.612Z,47.13
2019-04-10T13:56:02.651Z,48.38
2019-04-10T13:58:33.240Z,49.62
2019-04-10T14:01:03.147Z,50.45
2019-04-10T14:03:32.839Z,50.53
2019-04-10T14:06:03.371Z,50.60
2019-04-10T14:08:54.718Z,50.19
2019-04-10T14:11:04.766Z,50.14
2019-04-10T14:13:36.163Z,50.22
2019-04-10T14:16:08.336Z,50.62
2019-04-10T14:18:39.040Z,50.89
2019-04-10T14:21:12.905Z,51.13
2019-04-10T14:23:40.490Z,51.08
2019-04-10T14:26:39.910Z,51.08
2019-04-10T14:28:59.687Z,50.92
2019-04-10T14:31:32.101Z,50.99
2019-04-10T14:34:03.465Z,51.24
2019-04-10T14:36:33.177Z,51.61
2019-04-10T14:39:11.164Z,52.27
2019-04-10T14:41:34.439Z,52.77
2019-04-10T14:44:04.167Z,53.21
2019-04-10T14:46:33.969Z,53.19
2019-04-10T14:49:04.792Z,53.16
2019-04-10T14:51:34.780Z,53.14
2019-04-10T14:54:06.437Z,53.35
2019-04-10T14:56:36.625Z,53.59
2019-04-10T14:59:07.192Z,53.71
2019-04-10T15:01:39.081Z,54.04
2019-04-10T15:04:10.920Z,54.23
2019-04-10T15:06:41.705Z,54.30
2019-04-10T15:09:24.011Z,54.46
2019-04-10T15:11:49.763Z,54.80
2019-04-10T15:14:21.612Z,55.07
2019-04-10T15:16:59.532Z,55.16
2019-04-10T15:19:25.416Z,55.24
2019-04-10T15:21:55.971Z,55.50
2019-04-10T15:24:25.909Z,55.96
2019-04-10T15:26:55.764Z,56.57
2019-04-10T15:29:25.688Z,57.01
2019-04-10T15:31:55.853Z,57.42
2019-04-10T15:34:26.121Z,57.51
2019-04-10T15:36:56.390Z,57.92
2019-04-10T15:39:33.955Z,58.39
2019-04-10T15:41:59.514Z,58.84
2019-04-10T15:44:30.453Z,59.07
2019-04-10T15:47:10.566Z,59.09
2019-04-10T15:49:32.450Z,59.47
2019-04-10T15:52:06.268Z,59.48
2019-04-10T15:54:36.122Z,59.70
2019-04-10T15:57:06.855Z,59.98
2019-04-10T15:59:38.545Z,60.23
2019-04-10T16:02:08.578Z,60.31
2019-04-10T16:04:42.268Z,60.50
2019-04-10T16:07:14.382Z,60.62
2019-04-10T16:09:50.726Z,60.85
2019-04-10T16:12:19.280Z,61.02
2019-04-10T16:14:49.080Z,61.09
2019-04-10T16:17:35.546Z,61.12
2019-04-10T16:20:17.586Z,61.20
2019-04-10T16:22:49.129Z,61.17
2019-04-10T16:25:23.371Z,61.53
2019-04-10T16:27:53.593Z,61.45
2019-04-10T16:30:26.162Z,61.54
2019-04-10T16:32:56.029Z,61.53
2019-04-10T16:35:29.580Z,61.39
2019-04-10T16:38:00.356Z,61.66
2019-04-10T16:40:30.371Z,61.55
2019-04-10T16:43:01.347Z,61.53
2019-04-10T16:45:31.141Z,61.37
2019-04-10T16:48:03.709Z,61.43
2019-04-10T16:50:34.164Z,61.43
2019-04-10T16:53:05.455Z,61.15
2019-04-10T16:55:36.572Z,61.13
2019-04-10T16:58:07.590Z,61.62
2019-04-10T17:00:37.874Z,61.85
2019-04-10T17:03:07.604Z,61.76
2019-04-10T17:05:41.858Z,61.44
2019-04-10T17:08:12.007Z,61.28
2019-04-10T17:10:42.834Z,61.21
2019-04-10T17:13:12.585Z,61.03
2019-04-10T17:15:42.617Z,60.94
2019-04-10T17:18:12.290Z,61.03
2019-04-10T17:20:41.998Z,61.19
2019-04-10T17:23:12.287Z,61.49
2019-04-10T17:25:42.400Z,61.39
2019-04-10T17:28:12.373Z,61.34
2019-04-10T17:30:42.394Z,61.41
2019-04-10T17:33:13.179Z,61.51
2019-04-10T17:35:43.445Z,61.40
2019-04-10T17:38:14.224Z,61.25
2019-04-10T17:40:48.805Z,61.19
2019-04-10T17:43:19.005Z,60.68
2019-04-10T17:45:48.980Z,60.56
2019-04-10T17:48:19.868Z,60.42
2019-04-10T17:50:49.913Z,60.33
2019-04-10T17:53:20.972Z,60.12
2019-04-10T17:55:51.629Z,60.01
2019-04-10T17:58:21.361Z,59.89
2019-04-10T18:00:53.703Z,59.87
2019-04-10T18:03:23.578Z,59.68
2019-04-10T18:05:53.223Z,59.56
2019-04-10T18:08:26.419Z,59.62
2019-04-10T18:10:55.746Z,59.62
2019-04-10T18:13:26.689Z,59.55
2019-04-10T18:15:57.114Z,59.44
2019-04-10T18:18:27.507Z,59.46
2019-04-10T18:20:58.161Z,59.52
2019-04-10T18:23:28.282Z,59.48
2019-04-10T18:25:58.302Z,59.49
2019-04-10T18:28:30.933Z,59.47
2019-04-10T18:31:00.615Z,59.39
2019-04-10T18:33:30.900Z,59.29
2019-04-10T18:36:00.680Z,59.30
2019-04-10T18:38:30.578Z,59.22
2019-04-10T18:41:03.762Z,59.31
2019-04-10T18:43:32.003Z,59.33
2019-04-10T18:46:08.809Z,59.29
2019-04-10T18:48:33.075Z,59.32
2019-04-10T18:51:02.904Z,59.28
2019-04-10T18:53:33.100Z,59.37
2019-04-10T18:56:03.359Z,59.41
2019-04-10T18:58:38.028Z,59.46
2019-04-10T19:01:14.268Z,59.37
2019-04-10T19:03:56.308Z,59.56
2019-04-10T19:06:24.809Z,59.64
2019-04-10T19:09:07.592Z,59.82
2019-04-10T19:11:30.205Z,60.16
2019-04-10T19:13:57.709Z,60.49
2019-04-10T19:16:28.205Z,60.58
2019-04-10T19:18:59.744Z,60.65
2019-04-10T19:21:29.766Z,60.78
2019-04-10T19:23:59.425Z,60.73
2019-04-10T19:26:29.488Z,60.92
2019-04-10T19:28:59.445Z,60.94
2019-04-10T19:31:29.855Z,60.83
2019-04-10T19:33:59.545Z,60.85
2019-04-10T19:36:29.960Z,60.85
2019-04-10T19:39:00.193Z,61.09
2019-04-10T19:41:35.785Z,61.16
2019-04-10T19:44:02.417Z,61.17
2019-04-10T19:46:33.392Z,61.12
2019-04-10T19:49:03.904Z,61.27
2019-04-10T19:51:36.753Z,61.62
2019-04-10T19:54:07.813Z,61.81
2019-04-10T19:56:37.707Z,61.75
2019-04-10T19:59:08.390Z,61.78
2019-04-10T20:01:38.162Z,61.92
2019-04-10T20:04:08.253Z,62.06
2019-04-10T20:06:38.567Z,62.23
2019-04-10T20:09:09.005Z,62.35
2019-04-10T20:11:43.418Z,62.41
2019-04-10T20:14:10.449Z,62.49
2019-04-10T20:16:41.616Z,62.62
2019-04-10T20:19:11.585Z,62.64
2019-04-10T20:21:41.922Z,62.98
2019-04-10T20:24:12.375Z,63.29
2019-04-10T20:26:43.718Z,64.34
2019-04-10T20:29:13.476Z,64.74
2019-04-10T20:31:43.731Z,64.64
2019-04-10T20:34:13.705Z,65.13
2019-04-10T20:36:45.425Z,64.85
2019-04-10T20:39:15.112Z,64.41
2019-04-10T20:41:51.906Z,64.03
2019-04-10T20:44:16.957Z,63.95
2019-04-10T20:46:48.730Z,63.97
2019-04-10T20:49:18.500Z,64.01
2019-04-10T20:51:48.925Z,63.97
2019-04-10T20:54:20.380Z,64.15
2019-04-10T20:56:50.760Z,64.43
2019-04-10T20:59:20.677Z,64.49
2019-04-10T21:01:51.461Z,64.61
2019-04-10T21:04:21.362Z,64.79
2019-04-10T21:06:51.442Z,64.89
2019-04-10T21:09:21.875Z,64.98
2019-04-10T21:12:01.934Z,65.07
2019-04-10T21:14:23.640Z,65.32
2019-04-10T21:16:53.271Z,65.44
2019-04-10T21:19:22.889Z,65.45
2019-04-10T21:21:52.538Z,65.63
2019-04-10T21:24:22.154Z,65.85
2019-04-10T21:26:52.751Z,65.80
2019-04-10T21:29:41.933Z,65.82
2019-04-10T21:32:30.336Z,65.80
2019-04-10T21:35:02.095Z,65.86
2019-04-10T21:37:32.601Z,66.26
2019-04-10T21:40:02.699Z,66.67
2019-04-10T21:42:33.524Z,67.22
2019-04-10T21:45:03.306Z,67.37
2019-04-10T21:47:33.443Z,67.12
2019-04-10T21:50:04.493Z,67.46
2019-04-10T21:52:34.805Z,67.66
2019-04-10T21:55:06.618Z,68.45
2019-04-10T21:57:36.651Z,68.57
2019-04-10T22:00:10.890Z,68.91
2019-04-10T22:02:40.522Z,68.90
2019-04-10T22:05:12.839Z,69.72
2019-04-10T22:07:50.321Z,69.95
2019-04-10T22:10:25.886Z,70.25
2019-04-10T22:12:55.631Z,70.15
2019-04-10T22:15:29.271Z,69.56
2019-04-10T22:17:59.031Z,69.05
2019-04-10T22:20:29.746Z,68.63
2019-04-10T22:22:59.814Z,68.32
2019-04-10T22:25:29.987Z,67.98
2019-04-10T22:28:00.498Z,67.72
2019-04-10T22:30:30.241Z,67.77
2019-04-10T22:32:59.986Z,67.81
2019-04-10T22:35:31.430Z,67.69
2019-04-10T22:38:02.509Z,67.63
2019-04-10T22:40:33.356Z,67.49
2019-04-10T22:43:05.417Z,67.44
2019-04-10T22:45:36.035Z,67.42
2019-04-10T22:48:06.324Z,67.32
2019-04-10T22:50:36.510Z,67.33
2019-04-10T22:53:06.846Z,67.39
2019-04-10T22:55:36.773Z,67.53
2019-04-10T22:58:06.512Z,67.53
2019-04-10T23:00:37.626Z,67.89
2019-04-10T23:03:07.744Z,67.79
2019-04-10T23:05:37.446Z,67.76
2019-04-10T23:08:07.489Z,67.72
2019-04-10T23:10:37.261Z,67.59
2019-04-10T23:13:08.839Z,67.47
2019-04-10T23:15:39.746Z,67.51
2019-04-10T23:18:09.868Z,67.63
2019-04-10T23:20:39.784Z,67.82
2019-04-10T23:23:10.633Z,68.99
2019-04-10T23:25:40.596Z,69.85
2019-04-10T23:28:11.389Z,70.19
2019-04-10T23:30:41.852Z,70.12
2019-04-10T23:33:12.155Z,70.39
2019-04-10T23:35:43.384Z,70.27
2019-04-10T23:38:15.265Z,70.02
2019-04-10T23:40:45.210Z,69.72
2019-04-10T23:43:17.869Z,69.51
2019-04-10T23:45:47.426Z,69.63
2019-04-10T23:48:17.702Z,69.38
2019-04-10T23:50:48.283Z,68.96
2019-04-10T23:53:18.575Z,68.62
2019-04-10T23:55:48.370Z,68.56
2019-04-10T23:58:18.072Z,68.43
